sensor_id;sensor_type;location;lat;lon;timestamp;P1;durP1;ratioP1;P2;durP2;ratioP2
39452;SDS011;25154;-33.684;151.102;2023-03-14T00:03:02;10.32;;;1.80;;
39452;SDS011;25154;-33.684;151.102;2023-03-14T00:08:04;4.80;;;1.30;;
39452;SDS011;25154;-33.684;151.102;2023-03-14T00:13:07;8.00;;;1.80;;
39452;SDS011;25154;-33.684;151.102;2023-03-14T00:18:09;4.53;;;1.20;;
39452;SDS011;25154;-33.684;151.102;2023-03-14T00:23:12;6.18;;;1.45;;
39452;SDS011;25154;-33.684;151.102;2023-03-14T00:28:14;5.57;;;1.40;;
39452;SDS011;25154;-33.684;151.102;2023-03-14T00:33:16;4.60;;;1.30;;
39452;SDS011;25154;-33.684;151.102;2023-03-14T00:38:19;4.50;;;1.20;;
39452;SDS011;25154;-33.684;151.102;2023-03-14T00:43:21;4.68;;;1.27;;
39452;SDS011;25154;-33.684;151.102;2023-03-14T00:48:24;3.65;;;1.10;;
39452;SDS011;25154;-33.684;151.102;2023-03-14T00:53:26;4.65;;;1.25;;
39452;SDS011;25154;-33.684;151.102;2023-03-14T00:58:29;4.85;;;1.25;;
39452;SDS011;25154;-33.684;151.102;2023-03-14T01:03:31;4.88;;;1.63;;
39452;SDS011;25154;-33.684;151.102;2023-03-14T01:08:33;3.83;;;1.00;;
39452;SDS011;25154;-33.684;151.102;2023-03-14T01:13:36;3.90;;;1.20;;
39452;SDS011;25154;-33.684;151.102;2023-03-14T01:18:39;3.78;;;1.30;;
39452;SDS011;25154;-33.684;151.102;2023-03-14T01:23:44;6.53;;;1.35;;
39452;SDS011;25154;-33.684;151.102;2023-03-14T01:28:48;3.53;;;1.10;;
39452;SDS011;25154;-33.684;151.102;2023-03-14T01:33:51;5.28;;;1.30;;
39452;SDS011;25154;-33.684;151.102;2023-03-14T01:38:54;5.32;;;1.30;;
39452;SDS011;25154;-33.684;151.102;2023-03-14T01:43:56;6.47;;;1.38;;
39452;SDS011;25154;-33.684;151.102;2023-03-14T01:54:46;8.60;;;1.65;;
39452;SDS011;25154;-33.684;151.102;2023-03-14T02:00:00;7.28;;;1.92;;
39452;SDS011;25154;-33.684;151.102;2023-03-14T02:05:14;7.97;;;1.63;;
39452;SDS011;25154;-33.684;151.102;2023-03-14T02:10:20;7.65;;;2.40;;
39452;SDS011;25154;-33.684;151.102;2023-03-14T02:15:27;9.43;;;2.10;;
39452;SDS011;25154;-33.684;151.102;2023-03-14T02:25:41;10.38;;;2.28;;
39452;SDS011;25154;-33.684;151.102;2023-03-14T02:30:57;11.20;;;2.15;;
39452;SDS011;25154;-33.684;151.102;2023-03-14T02:36:04;6.32;;;1.73;;
39452;SDS011;25154;-33.684;151.102;2023-03-14T02:41:09;9.43;;;2.17;;
39452;SDS011;25154;-33.684;151.102;2023-03-14T02:46:12;10.25;;;2.35;;
39452;SDS011;25154;-33.684;151.102;2023-03-14T02:51:18;7.22;;;1.90;;
39452;SDS011;25154;-33.684;151.102;2023-03-14T02:56:22;6.13;;;1.77;;
39452;SDS011;25154;-33.684;151.102;2023-03-14T03:01:25;6.80;;;1.75;;
39452;SDS011;25154;-33.684;151.102;2023-03-14T03:06:28;6.90;;;1.67;;
39452;SDS011;25154;-33.684;151.102;2023-03-14T03:11:30;8.10;;;2.05;;
39452;SDS011;25154;-33.684;151.102;2023-03-14T03:16:33;7.10;;;1.70;;
39452;SDS011;25154;-33.684;151.102;2023-03-14T03:21:36;7.25;;;1.55;;
39452;SDS011;25154;-33.684;151.102;2023-03-14T03:26:41;3.60;;;1.38;;
39452;SDS011;25154;-33.684;151.102;2023-03-14T03:31:44;6.32;;;1.80;;
39452;SDS011;25154;-33.684;151.102;2023-03-14T03:36:47;8.68;;;1.52;;
39452;SDS011;25154;-33.684;151.102;2023-03-14T03:41:50;6.00;;;1.63;;
39452;SDS011;25154;-33.684;151.102;2023-03-14T03:46:52;6.15;;;1.33;;
39452;SDS011;25154;-33.684;151.102;2023-03-14T03:51:55;6.80;;;1.75;;
39452;SDS011;25154;-33.684;151.102;2023-03-14T03:56:58;5.20;;;1.73;;
39452;SDS011;25154;-33.684;151.102;2023-03-14T04:02:01;5.97;;;1.60;;
39452;SDS011;25154;-33.684;151.102;2023-03-14T04:07:04;7.32;;;1.45;;
39452;SDS011;25154;-33.684;151.102;2023-03-14T04:12:06;7.50;;;1.50;;
39452;SDS011;25154;-33.684;151.102;2023-03-14T04:17:11;5.80;;;1.40;;
39452;SDS011;25154;-33.684;151.102;2023-03-14T04:22:14;6.25;;;1.42;;
39452;SDS011;25154;-33.684;151.102;2023-03-14T04:27:17;6.22;;;1.38;;
39452;SDS011;25154;-33.684;151.102;2023-03-14T04:32:20;6.10;;;1.80;;
39452;SDS011;25154;-33.684;151.102;2023-03-14T04:37:22;7.03;;;1.60;;
39452;SDS011;25154;-33.684;151.102;2023-03-14T04:42:25;7.22;;;1.70;;
39452;SDS011;25154;-33.684;151.102;2023-03-14T04:47:28;4.05;;;1.20;;
39452;SDS011;25154;-33.684;151.102;2023-03-14T04:52:31;6.78;;;1.85;;
39452;SDS011;25154;-33.684;151.102;2023-03-14T04:57:34;6.65;;;1.50;;
39452;SDS011;25154;-33.684;151.102;2023-03-14T05:02:36;10.15;;;1.67;;
39452;SDS011;25154;-33.684;151.102;2023-03-14T05:07:39;6.78;;;1.88;;
39452;SDS011;25154;-33.684;151.102;2023-03-14T05:12:42;8.95;;;1.70;;
39452;SDS011;25154;-33.684;151.102;2023-03-14T05:17:45;8.80;;;1.85;;
39452;SDS011;25154;-33.684;151.102;2023-03-14T05:22:49;7.10;;;1.60;;
39452;SDS011;25154;-33.684;151.102;2023-03-14T05:27:55;9.13;;;1.77;;
39452;SDS011;25154;-33.684;151.102;2023-03-14T05:32:58;11.88;;;2.15;;
39452;SDS011;25154;-33.684;151.102;2023-03-14T05:38:01;8.57;;;1.77;;
39452;SDS011;25154;-33.684;151.102;2023-03-14T05:43:03;9.20;;;1.58;;
39452;SDS011;25154;-33.684;151.102;2023-03-14T05:48:08;10.75;;;2.03;;
39452;SDS011;25154;-33.684;151.102;2023-03-14T05:53:11;11.88;;;2.05;;
39452;SDS011;25154;-33.684;151.102;2023-03-14T05:58:14;6.82;;;1.90;;
39452;SDS011;25154;-33.684;151.102;2023-03-14T06:03:17;11.52;;;1.88;;
39452;SDS011;25154;-33.684;151.102;2023-03-14T06:08:23;7.22;;;1.80;;
39452;SDS011;25154;-33.684;151.102;2023-03-14T06:13:30;10.45;;;1.77;;
39452;SDS011;25154;-33.684;151.102;2023-03-14T06:18:32;5.70;;;1.50;;
39452;SDS011;25154;-33.684;151.102;2023-03-14T06:23:35;7.53;;;1.38;;
39452;SDS011;25154;-33.684;151.102;2023-03-14T06:28:39;4.25;;;0.98;;
39452;SDS011;25154;-33.684;151.102;2023-03-14T06:33:42;6.63;;;1.30;;
39452;SDS011;25154;-33.684;151.102;2023-03-14T06:38:45;3.47;;;1.30;;
39452;SDS011;25154;-33.684;151.102;2023-03-14T06:43:47;6.57;;;1.40;;
39452;SDS011;25154;-33.684;151.102;2023-03-14T06:48:50;7.25;;;1.50;;
39452;SDS011;25154;-33.684;151.102;2023-03-14T06:53:54;6.35;;;1.23;;
39452;SDS011;25154;-33.684;151.102;2023-03-14T06:58:56;8.40;;;1.27;;
39452;SDS011;25154;-33.684;151.102;2023-03-14T07:03:59;7.18;;;1.48;;
39452;SDS011;25154;-33.684;151.102;2023-03-14T07:09:02;10.05;;;1.85;;
39452;SDS011;25154;-33.684;151.102;2023-03-14T07:14:09;10.02;;;1.77;;
39452;SDS011;25154;-33.684;151.102;2023-03-14T07:19:15;10.48;;;2.28;;
39452;SDS011;25154;-33.684;151.102;2023-03-14T07:24:17;8.27;;;1.63;;
39452;SDS011;25154;-33.684;151.102;2023-03-14T07:29:20;5.90;;;1.70;;
39452;SDS011;25154;-33.684;151.102;2023-03-14T07:34:23;6.43;;;1.30;;
39452;SDS011;25154;-33.684;151.102;2023-03-14T07:39:26;6.07;;;1.70;;
39452;SDS011;25154;-33.684;151.102;2023-03-14T07:44:29;7.82;;;1.83;;
39452;SDS011;25154;-33.684;151.102;2023-03-14T07:49:31;4.88;;;1.60;;
39452;SDS011;25154;-33.684;151.102;2023-03-14T07:54:34;9.43;;;2.03;;
39452;SDS011;25154;-33.684;151.102;2023-03-14T07:59:37;8.95;;;1.90;;
39452;SDS011;25154;-33.684;151.102;2023-03-14T08:04:40;11.55;;;1.85;;
39452;SDS011;25154;-33.684;151.102;2023-03-14T08:09:43;6.93;;;1.80;;
39452;SDS011;25154;-33.684;151.102;2023-03-14T08:14:49;5.00;;;1.77;;
39452;SDS011;25154;-33.684;151.102;2023-03-14T08:19:52;6.27;;;2.23;;
39452;SDS011;25154;-33.684;151.102;2023-03-14T08:24:54;8.52;;;1.70;;
39452;SDS011;25154;-33.684;151.102;2023-03-14T08:29:57;8.38;;;2.00;;
39452;SDS011;25154;-33.684;151.102;2023-03-14T08:35:00;9.27;;;1.83;;
39452;SDS011;25154;-33.684;151.102;2023-03-14T08:40:04;9.45;;;1.80;;
39452;SDS011;25154;-33.684;151.102;2023-03-14T08:45:11;7.95;;;1.80;;
39452;SDS011;25154;-33.684;151.102;2023-03-14T08:50:15;9.30;;;1.95;;
39452;SDS011;25154;-33.684;151.102;2023-03-14T08:55:18;5.75;;;1.63;;
39452;SDS011;25154;-33.684;151.102;2023-03-14T09:00:21;8.65;;;1.83;;
39452;SDS011;25154;-33.684;151.102;2023-03-14T09:05:24;8.45;;;1.90;;
39452;SDS011;25154;-33.684;151.102;2023-03-14T09:10:27;8.00;;;1.85;;
39452;SDS011;25154;-33.684;151.102;2023-03-14T09:15:30;8.00;;;2.00;;
39452;SDS011;25154;-33.684;151.102;2023-03-14T09:20:32;8.70;;;1.92;;
39452;SDS011;25154;-33.684;151.102;2023-03-14T09:25:35;9.00;;;2.05;;
39452;SDS011;25154;-33.684;151.102;2023-03-14T09:30:38;8.30;;;1.67;;
39452;SDS011;25154;-33.684;151.102;2023-03-14T09:35:41;13.30;;;2.10;;
39452;SDS011;25154;-33.684;151.102;2023-03-14T09:40:43;12.73;;;1.90;;
39452;SDS011;25154;-33.684;151.102;2023-03-14T09:45:46;6.43;;;2.10;;
39452;SDS011;25154;-33.684;151.102;2023-03-14T09:50:51;5.80;;;1.65;;
39452;SDS011;25154;-33.684;151.102;2023-03-14T09:55:57;10.57;;;1.90;;
39452;SDS011;25154;-33.684;151.102;2023-03-14T10:06:12;10.52;;;2.33;;
39452;SDS011;25154;-33.684;151.102;2023-03-14T10:11:16;7.28;;;1.75;;
39452;SDS011;25154;-33.684;151.102;2023-03-14T10:16:22;4.97;;;1.95;;
39452;SDS011;25154;-33.684;151.102;2023-03-14T10:21:35;11.27;;;2.83;;
39452;SDS011;25154;-33.684;151.102;2023-03-14T10:26:39;9.73;;;2.83;;
39452;SDS011;25154;-33.684;151.102;2023-03-14T10:31:47;7.97;;;2.38;;
39452;SDS011;25154;-33.684;151.102;2023-03-14T10:36:53;7.25;;;2.10;;
39452;SDS011;25154;-33.684;151.102;2023-03-14T10:42:04;6.40;;;2.00;;
39452;SDS011;25154;-33.684;151.102;2023-03-14T10:47:22;10.20;;;2.55;;
39452;SDS011;25154;-33.684;151.102;2023-03-14T10:52:28;11.80;;;2.80;;
39452;SDS011;25154;-33.684;151.102;2023-03-14T10:57:37;9.75;;;2.30;;
39452;SDS011;25154;-33.684;151.102;2023-03-14T11:07:57;10.75;;;3.30;;
39452;SDS011;25154;-33.684;151.102;2023-03-14T11:13:16;14.43;;;3.35;;
39452;SDS011;25154;-33.684;151.102;2023-03-14T11:18:46;11.30;;;2.28;;
39452;SDS011;25154;-33.684;151.102;2023-03-14T11:34:49;9.00;;;2.45;;
39452;SDS011;25154;-33.684;151.102;2023-03-14T11:39:59;12.70;;;2.30;;
39452;SDS011;25154;-33.684;151.102;2023-03-14T11:45:15;9.48;;;2.10;;
39452;SDS011;25154;-33.684;151.102;2023-03-14T11:55:34;6.47;;;2.22;;
39452;SDS011;25154;-33.684;151.102;2023-03-14T12:00:39;6.85;;;2.08;;
39452;SDS011;25154;-33.684;151.102;2023-03-14T12:05:59;9.52;;;1.90;;
39452;SDS011;25154;-33.684;151.102;2023-03-14T12:11:19;7.65;;;2.35;;
39452;SDS011;25154;-33.684;151.102;2023-03-14T12:16:41;5.78;;;2.10;;
39452;SDS011;25154;-33.684;151.102;2023-03-14T12:22:01;7.35;;;2.17;;
39452;SDS011;25154;-33.684;151.102;2023-03-14T12:27:45;7.15;;;2.40;;
39452;SDS011;25154;-33.684;151.102;2023-03-14T12:43:30;8.35;;;2.33;;
39452;SDS011;25154;-33.684;151.102;2023-03-14T12:48:34;22.30;;;2.80;;
39452;SDS011;25154;-33.684;151.102;2023-03-14T13:04:43;8.57;;;2.35;;
39452;SDS011;25154;-33.684;151.102;2023-03-14T13:09:55;9.70;;;2.30;;
39452;SDS011;25154;-33.684;151.102;2023-03-14T13:14:58;9.90;;;2.83;;
39452;SDS011;25154;-33.684;151.102;2023-03-14T13:20:05;7.50;;;2.10;;
39452;SDS011;25154;-33.684;151.102;2023-03-14T13:25:35;7.50;;;2.35;;
39452;SDS011;25154;-33.684;151.102;2023-03-14T13:30:39;7.75;;;2.47;;
39452;SDS011;25154;-33.684;151.102;2023-03-14T13:36:03;9.00;;;2.35;;
39452;SDS011;25154;-33.684;151.102;2023-03-14T13:41:07;7.30;;;2.30;;
39452;SDS011;25154;-33.684;151.102;2023-03-14T13:51:16;9.05;;;2.10;;
39452;SDS011;25154;-33.684;151.102;2023-03-14T13:56:22;6.93;;;1.90;;
39452;SDS011;25154;-33.684;151.102;2023-03-14T14:06:37;7.80;;;2.17;;
39452;SDS011;25154;-33.684;151.102;2023-03-14T14:11:47;7.75;;;2.22;;
39452;SDS011;25154;-33.684;151.102;2023-03-14T14:17:10;10.88;;;3.08;;
39452;SDS011;25154;-33.684;151.102;2023-03-14T14:22:19;6.45;;;2.35;;
39452;SDS011;25154;-33.684;151.102;2023-03-14T14:27:29;8.17;;;2.17;;
39452;SDS011;25154;-33.684;151.102;2023-03-14T14:32:38;10.23;;;2.38;;
39452;SDS011;25154;-33.684;151.102;2023-03-14T14:37:42;7.95;;;2.30;;
39452;SDS011;25154;-33.684;151.102;2023-03-14T14:42:45;9.43;;;2.92;;
39452;SDS011;25154;-33.684;151.102;2023-03-14T14:47:49;16.33;;;2.67;;
39452;SDS011;25154;-33.684;151.102;2023-03-14T14:52:56;12.25;;;2.55;;
39452;SDS011;25154;-33.684;151.102;2023-03-14T14:58:46;13.32;;;2.88;;
39452;SDS011;25154;-33.684;151.102;2023-03-14T15:03:29;11.77;;;3.05;;
39452;SDS011;25154;-33.684;151.102;2023-03-14T15:08:33;10.65;;;2.90;;
39452;SDS011;25154;-33.684;151.102;2023-03-14T15:13:35;14.65;;;3.22;;
39452;SDS011;25154;-33.684;151.102;2023-03-14T15:18:37;7.82;;;3.53;;
39452;SDS011;25154;-33.684;151.102;2023-03-14T15:23:40;10.20;;;2.75;;
39452;SDS011;25154;-33.684;151.102;2023-03-14T15:28:45;5.90;;;2.50;;
39452;SDS011;25154;-33.684;151.102;2023-03-14T15:33:48;9.48;;;2.80;;
39452;SDS011;25154;-33.684;151.102;2023-03-14T15:38:51;9.15;;;2.88;;
39452;SDS011;25154;-33.684;151.102;2023-03-14T15:43:54;11.07;;;3.47;;
39452;SDS011;25154;-33.684;151.102;2023-03-14T15:48:57;17.90;;;3.30;;
39452;SDS011;25154;-33.684;151.102;2023-03-14T15:53:59;7.85;;;3.47;;
39452;SDS011;25154;-33.684;151.102;2023-03-14T15:59:02;9.52;;;3.20;;
39452;SDS011;25154;-33.684;151.102;2023-03-14T16:04:07;6.20;;;2.83;;
39452;SDS011;25154;-33.684;151.102;2023-03-14T16:09:10;14.35;;;2.88;;
39452;SDS011;25154;-33.684;151.102;2023-03-14T16:14:13;37.50;;;4.30;;
39452;SDS011;25154;-33.684;151.102;2023-03-14T16:19:15;18.35;;;4.00;;
39452;SDS011;25154;-33.684;151.102;2023-03-14T16:24:18;25.27;;;4.40;;
39452;SDS011;25154;-33.684;151.102;2023-03-14T16:29:20;28.20;;;4.20;;
39452;SDS011;25154;-33.684;151.102;2023-03-14T16:34:23;23.05;;;4.40;;
39452;SDS011;25154;-33.684;151.102;2023-03-14T16:39:25;26.13;;;5.35;;
39452;SDS011;25154;-33.684;151.102;2023-03-14T16:44:31;14.35;;;5.53;;
39452;SDS011;25154;-33.684;151.102;2023-03-14T16:49:34;41.42;;;5.85;;
39452;SDS011;25154;-33.684;151.102;2023-03-14T16:54:36;35.13;;;5.93;;
39452;SDS011;25154;-33.684;151.102;2023-03-14T16:59:38;45.30;;;6.30;;
39452;SDS011;25154;-33.684;151.102;2023-03-14T17:04:41;43.65;;;6.40;;
39452;SDS011;25154;-33.684;151.102;2023-03-14T17:09:43;56.97;;;6.63;;
39452;SDS011;25154;-33.684;151.102;2023-03-14T17:14:47;55.42;;;6.18;;
39452;SDS011;25154;-33.684;151.102;2023-03-14T17:19:50;41.95;;;6.63;;
39452;SDS011;25154;-33.684;151.102;2023-03-14T17:24:52;23.77;;;7.18;;
39452;SDS011;25154;-33.684;151.102;2023-03-14T17:29:54;37.70;;;8.02;;
39452;SDS011;25154;-33.684;151.102;2023-03-14T17:34:57;21.92;;;7.75;;
39452;SDS011;25154;-33.684;151.102;2023-03-14T17:39:59;32.10;;;8.20;;
39452;SDS011;25154;-33.684;151.102;2023-03-14T17:45:03;30.08;;;8.10;;
39452;SDS011;25154;-33.684;151.102;2023-03-14T17:50:07;30.50;;;8.68;;
39452;SDS011;25154;-33.684;151.102;2023-03-14T17:55:10;38.95;;;8.27;;
39452;SDS011;25154;-33.684;151.102;2023-03-14T18:00:12;29.92;;;6.93;;
39452;SDS011;25154;-33.684;151.102;2023-03-14T18:05:15;32.33;;;8.10;;
39452;SDS011;25154;-33.684;151.102;2023-03-14T18:10:17;31.92;;;9.07;;
39452;SDS011;25154;-33.684;151.102;2023-03-14T18:15:21;38.22;;;6.72;;
39452;SDS011;25154;-33.684;151.102;2023-03-14T18:20:23;27.67;;;7.38;;
39452;SDS011;25154;-33.684;151.102;2023-03-14T18:25:25;39.60;;;6.28;;
39452;SDS011;25154;-33.684;151.102;2023-03-14T18:30:28;39.70;;;5.72;;
39452;SDS011;25154;-33.684;151.102;2023-03-14T18:35:30;36.33;;;7.38;;
39452;SDS011;25154;-33.684;151.102;2023-03-14T18:40:33;50.25;;;5.68;;
39452;SDS011;25154;-33.684;151.102;2023-03-14T18:45:35;24.73;;;5.72;;
39452;SDS011;25154;-33.684;151.102;2023-03-14T18:50:38;20.63;;;5.70;;
39452;SDS011;25154;-33.684;151.102;2023-03-14T18:55:42;17.40;;;4.88;;
39452;SDS011;25154;-33.684;151.102;2023-03-14T19:00:44;25.73;;;7.28;;
39452;SDS011;25154;-33.684;151.102;2023-03-14T19:05:47;21.05;;;6.40;;
39452;SDS011;25154;-33.684;151.102;2023-03-14T19:10:50;26.55;;;6.93;;
39452;SDS011;25154;-33.684;151.102;2023-03-14T19:15:54;20.33;;;6.38;;
39452;SDS011;25154;-33.684;151.102;2023-03-14T19:21:00;31.25;;;6.28;;
39452;SDS011;25154;-33.684;151.102;2023-03-14T19:26:05;25.55;;;5.07;;
39452;SDS011;25154;-33.684;151.102;2023-03-14T19:31:09;32.97;;;5.80;;
39452;SDS011;25154;-33.684;151.102;2023-03-14T19:41:29;14.82;;;5.07;;
39452;SDS011;25154;-33.684;151.102;2023-03-14T19:46:33;17.08;;;4.93;;
39452;SDS011;25154;-33.684;151.102;2023-03-14T19:51:35;10.93;;;4.95;;
39452;SDS011;25154;-33.684;151.102;2023-03-14T19:56:38;15.30;;;5.65;;
39452;SDS011;25154;-33.684;151.102;2023-03-14T20:01:41;14.70;;;5.45;;
39452;SDS011;25154;-33.684;151.102;2023-03-14T20:06:48;21.20;;;5.70;;
39452;SDS011;25154;-33.684;151.102;2023-03-14T20:11:53;33.47;;;5.25;;
39452;SDS011;25154;-33.684;151.102;2023-03-14T20:16:58;19.65;;;4.78;;
39452;SDS011;25154;-33.684;151.102;2023-03-14T20:22:01;20.90;;;4.60;;
39452;SDS011;25154;-33.684;151.102;2023-03-14T20:27:05;11.68;;;4.25;;
39452;SDS011;25154;-33.684;151.102;2023-03-14T20:32:08;8.25;;;3.97;;
39452;SDS011;25154;-33.684;151.102;2023-03-14T20:37:11;9.52;;;4.35;;
39452;SDS011;25154;-33.684;151.102;2023-03-14T20:42:14;13.38;;;5.03;;
39452;SDS011;25154;-33.684;151.102;2023-03-14T20:47:17;12.55;;;5.28;;
39452;SDS011;25154;-33.684;151.102;2023-03-14T20:52:21;11.13;;;4.85;;
39452;SDS011;25154;-33.684;151.102;2023-03-14T20:57:23;14.02;;;5.22;;
39452;SDS011;25154;-33.684;151.102;2023-03-14T21:02:26;10.82;;;5.00;;
39452;SDS011;25154;-33.684;151.102;2023-03-14T21:07:29;21.48;;;5.80;;
39452;SDS011;25154;-33.684;151.102;2023-03-14T21:12:41;16.10;;;5.85;;
39452;SDS011;25154;-33.684;151.102;2023-03-14T21:17:43;12.43;;;5.70;;
39452;SDS011;25154;-33.684;151.102;2023-03-14T21:22:46;15.77;;;6.75;;
39452;SDS011;25154;-33.684;151.102;2023-03-14T21:27:49;19.05;;;6.28;;
39452;SDS011;25154;-33.684;151.102;2023-03-14T21:32:52;17.27;;;7.32;;
39452;SDS011;25154;-33.684;151.102;2023-03-14T21:37:55;14.10;;;6.57;;
39452;SDS011;25154;-33.684;151.102;2023-03-14T21:42:58;17.10;;;7.20;;
39452;SDS011;25154;-33.684;151.102;2023-03-14T21:48:04;17.77;;;7.32;;
39452;SDS011;25154;-33.684;151.102;2023-03-14T21:53:07;16.88;;;8.02;;
39452;SDS011;25154;-33.684;151.102;2023-03-14T21:58:10;18.33;;;8.30;;
39452;SDS011;25154;-33.684;151.102;2023-03-14T22:03:19;15.13;;;7.95;;
39452;SDS011;25154;-33.684;151.102;2023-03-14T22:08:25;14.73;;;7.22;;
39452;SDS011;25154;-33.684;151.102;2023-03-14T22:13:28;15.85;;;7.30;;
39452;SDS011;25154;-33.684;151.102;2023-03-14T22:18:31;19.55;;;5.32;;
39452;SDS011;25154;-33.684;151.102;2023-03-14T22:23:33;13.23;;;5.50;;
39452;SDS011;25154;-33.684;151.102;2023-03-14T22:28:36;12.90;;;5.40;;
39452;SDS011;25154;-33.684;151.102;2023-03-14T22:33:39;13.52;;;6.53;;
39452;SDS011;25154;-33.684;151.102;2023-03-14T22:38:42;12.80;;;6.20;;
39452;SDS011;25154;-33.684;151.102;2023-03-14T22:43:44;14.38;;;5.90;;
39452;SDS011;25154;-33.684;151.102;2023-03-14T22:48:47;15.32;;;5.80;;
39452;SDS011;25154;-33.684;151.102;2023-03-14T22:53:50;10.75;;;4.72;;
39452;SDS011;25154;-33.684;151.102;2023-03-14T22:58:55;9.82;;;4.47;;
39452;SDS011;25154;-33.684;151.102;2023-03-14T23:03:58;8.90;;;3.88;;
39452;SDS011;25154;-33.684;151.102;2023-03-14T23:09:01;9.65;;;3.80;;
39452;SDS011;25154;-33.684;151.102;2023-03-14T23:14:04;10.57;;;3.90;;
39452;SDS011;25154;-33.684;151.102;2023-03-14T23:19:07;16.17;;;4.47;;
39452;SDS011;25154;-33.684;151.102;2023-03-14T23:24:10;18.35;;;5.30;;
39452;SDS011;25154;-33.684;151.102;2023-03-14T23:29:13;10.95;;;4.50;;
39452;SDS011;25154;-33.684;151.102;2023-03-14T23:34:16;11.45;;;4.93;;
39452;SDS011;25154;-33.684;151.102;2023-03-14T23:39:19;7.78;;;4.43;;
39452;SDS011;25154;-33.684;151.102;2023-03-14T23:44:22;9.35;;;4.80;;
39452;SDS011;25154;-33.684;151.102;2023-03-14T23:49:26;9.57;;;5.28;;
39452;SDS011;25154;-33.684;151.102;2023-03-14T23:54:29;11.65;;;4.90;;
39452;SDS011;25154;-33.684;151.102;2023-03-14T23:59:32;11.10;;;5.03;;
